Forty Two — WDD4780 — position and weather

sailwx.info

Track history (hours):
 
Tides and Currents Weather Stations Pressure Air Temp Water Temp Dewpoint Dewpoint Depression Visibility Wind Speed Wind Dir Waves Ship Positions

Forty Two

Owner: allen, christopher h, port angeles, WA. More information available from US FCC via Universal Licensing System and Coast Guard Vessel Documentation Center.

Last reported at 2016-Apr-08 10:30 UTC. Time now 2016-Apr-30 01:30 UTC.
Position N 27°56' W 093°48'.
Warning: this ship's position is 21 days out of date.

Length 38 m.

Type: Passenger vessel. MMSI: 367455780.

Date/timePositionNaut miles runAvg speedWind from/ knotsBaromVisibWave heightAir tempDewpointWater temp
2016-Apr-08 10:30N 27°56' W 093°48'0 0.0
2016-Apr-08 09:32N 27°56' W 093°48'0 0.0
2016-Apr-08 08:31N 27°56' W 093°48'0 0.0
2016-Apr-08 07:33N 27°56' W 093°48'0 0.0
2016-Apr-08 06:32N 27°56' W 093°48'4 1.1
2016-Apr-08 02:33N 27°57' W 093°43'1715.7
2016-Apr-08 01:29N 28°00' W 093°25'65 5.8
2016-Apr-07 14:24N 28°40' W 092°27'0 0.0
2016-Apr-07 13:26N 28°40' W 092°27'7 3.5
2016-Apr-07 11:32N 28°47' W 092°26'4 0.1
2016-Apr-05 14:06N 28°51' W 092°23'916.5
2016-Apr-05 13:32N 28°60' W 092°21'1515.4
2016-Apr-05 12:33N 29°15' W 092°20'1413.8
2016-Apr-05 11:33N 29°28' W 092°19'5 4.8
2016-Apr-05 10:33N 29°33' W 092°18'10 9.2
2016-Apr-05 09:27N 29°43' W 092°15'6 7.0
2016-Apr-05 08:33N 29°47' W 092°09'3 2.7
2016-Apr-05 07:32N 29°49' W 092°08'  
Track history (hours):
 
Tides and Currents Weather Stations Pressure Air Temp Water Temp Dewpoint Dewpoint Depression Visibility Wind Speed Wind Dir Waves Ship Positions

Forty Two

Owner: allen, christopher h, port angeles, WA. More information available from US FCC via Universal Licensing System and Coast Guard Vessel Documentation Center.

Last reported at 2016-Apr-08 10:30 UTC. Time now 2016-Apr-30 01:30 UTC.
Position N 27°56' W 093°48'.
Warning: this ship's position is 21 days out of date.

Length 38 m.

Type: Passenger vessel. MMSI: 367455780.

Date/timePositionNaut miles runAvg speedWind from/ knotsBaromVisibWave heightAir tempDewpointWater temp
2016-Apr-08 10:30N 27°56' W 093°48'0 0.0
2016-Apr-08 09:32N 27°56' W 093°48'0 0.0
2016-Apr-08 08:31N 27°56' W 093°48'0 0.0
2016-Apr-08 07:33N 27°56' W 093°48'0 0.0
2016-Apr-08 06:32N 27°56' W 093°48'4 1.1
2016-Apr-08 02:33N 27°57' W 093°43'1715.7
2016-Apr-08 01:29N 28°00' W 093°25'65 5.8
2016-Apr-07 14:24N 28°40' W 092°27'0 0.0
2016-Apr-07 13:26N 28°40' W 092°27'7 3.5
2016-Apr-07 11:32N 28°47' W 092°26'4 0.1
2016-Apr-05 14:06N 28°51' W 092°23'916.5
2016-Apr-05 13:32N 28°60' W 092°21'1515.4
2016-Apr-05 12:33N 29°15' W 092°20'1413.8
2016-Apr-05 11:33N 29°28' W 092°19'5 4.8
2016-Apr-05 10:33N 29°33' W 092°18'10 9.2
2016-Apr-05 09:27N 29°43' W 092°15'6 7.0
2016-Apr-05 08:33N 29°47' W 092°09'3 2.7
2016-Apr-05 07:32N 29°49' W 092°08'  

Dump ship's entire track history